Hines, MN (56647)

5:22 PM CST on December 08, 2016 (GMT -0600)
Turtle River TWP | | Change Station

Elev 1379 ft 47.54 °N, 94.72 °W | Updated 9 seconds ago

Mostly Cloudy
Mostly Cloudy
14.9 °F
Feels Like 7 °F
N
5.4
Wind Variable Wind from NW
Gusts 5.4 mph

Today
High -- | Low -- °F
--% Chance of Precip.
Yesterday
High -- | Low -- °F
Precip. -- in
Pressure 30.45 in
Visibility 10.0 miles
Clouds Scattered Clouds 7500 ft
Windchill 7 °F
Dew Point 13 °F
Humidity 90%
Rainfall 0.00 in
Snow Depth Not available.
7:54 AM 4:26 PM
Waxing Gibbous, 68% visible
METAR KBJI 082313Z AUTO 30007KT 10SM SCT075 M11/M12 A3045 RMK AO2 T11071125
Pressure 30.45 in
Visibility 10.0 miles
Clouds Scattered Clouds 7500 ft
Windchill 7 °F
Dew Point 13 °F
Humidity 90%
Rainfall 0.00 in
Snow Depth Not available.
7:54 AM 4:26 PM
Waxing Gibbous, 68% visible
METAR KBJI 082313Z AUTO 30007KT 10SM SCT075 M11/M12 A3045 RMK AO2 T11071125

10-Day Weather Forecast

Almanac

Astronomy

Dec. 08, 2016 Rise Set
Actual Time
Civil Twilight
Nautical Twilight
Astronomical Twilight
Moon
Length of Visible Light
Length of Day
Tomorrow will be .
, % of the Moon is Illuminated

Today's Extremes

State Highs State Lows

Community

WunderPhotos

Upload Photos

1,956,277 photos uploaded!

WunderBlog® & News

Nearby

Air Quality

  Air Quality AQ Index Pollutant
Not available.

Snow Depth

Station Depth Elevation

Earthquake Activity

City Distance Mag. Time & Date
Minimum magnitude displayed is 2.5.

Coastal Water Temperatures

Place Temperature

Stations

Nearby Weather Stations

Station Location Temp. Windchill Dew Point Humidity Wind Precip. Elev Updated Type
                   

Watches & Warnings

There are currently no watches in effect.